Time;durP1;ratioP1;P1;durP2;ratioP2;P2;SDS_P1;SDS_P2;PMS_P1;PMS_P2;Temp;Humidity;BMP_temperature;BMP_pressure;BME280_temperature;BME280_humidity;BME280_pressure;Samples;Min_cycle;Max_cycle;Signal;HPM_P1;HPM_P2
2021/11/22 21:37:34;;;;;;;31.20;15.93;;;;;;;3.56;86.66;93807.91;5015559;28;20496;-75
2021/11/22 21:40:00;;;;;;;32.10;17.60;;;;;;;3.98;86.50;93824.00;5006978;28;20041;-75
2021/11/22 21:42:25;;;;;;;36.20;18.17;;;;;;;4.12;86.02;93806.53;5025619;28;20049;-76
2021/11/22 21:44:51;;;;;;;33.42;18.48;;;;;;;4.38;84.92;93791.41;5024428;28;20034;-75
2021/11/22 21:47:17;;;;;;;31.58;17.45;;;;;;;4.76;84.28;93804.81;5023137;28;20017;-75
2021/11/22 21:49:44;;;;;;;35.47;18.83;;;;;;;5.05;83.10;93795.03;5027232;28;20041;-75
2021/11/22 21:52:10;;;;;;;28.60;17.60;;;;;;;5.33;81.81;93791.63;5025732;28;20049;-75
2021/11/22 21:54:35;;;;;;;35.72;18.48;;;;;;;5.37;80.78;93781.28;5030141;28;20041;-75
2021/11/22 21:57:02;;;;;;;43.65;21.73;;;;;;;5.54;79.03;93785.03;5027739;28;20627;-75
2021/11/22 21:59:27;;;;;;;39.00;21.95;;;;;;;5.88;77.92;93808.63;5030575;28;20558;-74
2021/11/22 22:01:55;;;;;;;40.42;21.67;;;;;;;5.82;77.70;93790.50;5028794;28;20044;-75
2021/11/22 22:04:21;;;;;;;40.70;22.35;;;;;;;6.06;77.78;93812.38;5026333;28;20030;-75
2021/11/22 22:06:46;;;;;;;35.80;17.55;;;;;;;6.12;76.88;93789.31;5027494;28;20099;-75
2021/11/22 22:09:14;;;;;;;33.90;18.50;;;;;;;6.20;76.09;93789.50;5025517;28;20044;-74
2021/11/22 22:11:40;;;;;;;32.42;16.92;;;;;;;6.42;75.98;93799.47;5024316;28;20025;-75
2021/11/22 22:14:07;;;;;;;45.50;24.02;;;;;;;6.00;76.34;93808.22;5015680;28;20041;-74
2021/11/22 22:16:33;;;;;;;44.90;22.02;;;;;;;6.35;74.62;93789.28;5012990;28;20124;-74
2021/11/22 22:18:58;;;;;;;46.55;20.70;;;;;;;6.53;73.09;93784.25;5013874;28;20425;-74
2021/11/22 22:21:24;;;;;;;39.10;20.63;;;;;;;6.39;73.13;93755.94;5016497;28;20041;-74
2021/11/22 22:23:50;;;;;;;36.47;20.55;;;;;;;6.82;72.64;93800.69;5014871;28;20465;-74
2021/11/22 22:26:21;;;;;;;35.33;20.40;;;;;;;6.93;72.14;93796.03;5017540;28;20026;-74
2021/11/22 22:28:47;;;;;;;39.97;20.60;;;;;;;6.90;72.88;93796.63;5009483;28;20048;-75
2021/11/22 22:31:13;;;;;;;40.92;20.30;;;;;;;6.83;73.08;93789.06;5018471;28;20471;-74
2021/11/22 22:33:38;;;;;;;38.35;19.70;;;;;;;7.10;71.15;93777.75;5019167;28;20060;-75
2021/11/22 22:36:04;;;;;;;35.72;19.60;;;;;;;7.31;69.89;93786.88;5018299;28;20054;-75
2021/11/22 22:38:30;;;;;;;38.08;19.38;;;;;;;7.37;70.15;93791.03;5018586;28;20014;-75
2021/11/22 22:40:56;;;;;;;37.60;19.70;;;;;;;7.47;68.99;93793.47;5016725;28;20543;-75
2021/11/22 22:43:26;;;;;;;34.10;21.30;;;;;;;7.51;68.40;93788.38;5020845;28;20045;-75
2021/11/22 22:45:51;;;;;;;37.95;22.27;;;;;;;7.51;68.82;93777.78;5019131;28;20097;-75
2021/11/22 22:48:16;;;;;;;38.28;22.83;;;;;;;7.52;70.60;93777.50;5010207;28;20062;-75
2021/11/22 22:50:42;;;;;;;34.58;20.23;;;;;;;7.68;70.74;93786.69;5004065;28;20030;-75
2021/11/22 22:53:07;;;;;;;37.60;21.60;;;;;;;7.67;70.03;93763.97;5005682;28;20145;-75
2021/11/22 22:55:33;;;;;;;26.50;16.48;;;;;;;7.84;68.95;93767.88;5003941;28;20046;-75
2021/11/22 22:57:59;;;;;;;27.00;15.20;;;;;;;8.12;68.38;93787.94;5019567;28;20046;-74
2021/11/22 23:00:55;;;;;;;27.05;16.13;;;;;;;8.26;67.45;93782.63;5007556;28;20065;-76
2021/11/22 23:03:28;;;;;;;;;;;;;;;8.39;67.53;93779.94;5009845;28;20133;-75
2021/11/22 23:05:54;;;;;;;23.55;13.38;;;;;;;8.47;67.46;93781.06;5005967;28;19925;-75
2021/11/22 23:08:21;;;;;;;31.58;17.25;;;;;;;8.59;66.96;93778.69;5005561;28;20030;-75
2021/11/22 23:10:47;;;;;;;26.73;14.32;;;;;;;8.73;65.95;93773.31;5004064;28;20042;-75
2021/11/22 23:13:13;;;;;;;27.95;14.82;;;;;;;8.81;65.59;93780.53;5003561;28;20046;-76
2021/11/22 23:15:43;;;;;;;30.67;16.45;;;;;;;8.95;64.41;93784.69;5005036;28;20150;-75
2021/11/22 23:18:10;;;;;;;25.90;13.90;;;;;;;9.02;64.54;93786.94;5004059;28;20038;-75
2021/11/22 23:20:37;;;;;;;27.20;15.45;;;;;;;9.07;64.78;93784.16;5018253;28;20098;-75
2021/11/22 23:23:03;;;;;;;30.52;16.88;;;;;;;9.15;65.18;93780.00;5004448;28;20042;-75
2021/11/22 23:25:29;;;;;;;31.50;15.63;;;;;;;9.03;65.41;93752.16;4999338;28;20053;-75
2021/11/22 23:27:55;;;;;;;24.58;15.77;;;;;;;9.23;62.70;93766.00;5000814;28;20041;-74
2021/11/22 23:30:21;;;;;;;27.20;16.85;;;;;;;9.18;62.90;93758.97;4995454;28;20038;-74
2021/11/22 23:32:47;;;;;;;30.88;17.48;;;;;;;9.16;64.60;93761.13;4997637;28;20393;-75
2021/11/22 23:35:15;;;;;;;27.58;17.05;;;;;;;9.32;64.03;93780.88;5000723;28;20022;-74
2021/11/22 23:37:41;;;;;;;33.75;17.73;;;;;;;9.39;63.05;93781.22;5000277;28;20065;-74
2021/11/22 23:40:08;;;;;;;29.77;17.40;;;;;;;9.28;64.78;93776.47;5002098;28;20038;-75
2021/11/22 23:42:42;;;;;;;35.92;19.77;;;;;;;9.44;65.03;93799.66;5001143;28;20037;-75
2021/11/22 23:45:10;;;;;;;27.42;17.52;;;;;;;9.45;64.94;93780.00;5002630;28;20060;-75
2021/11/22 23:47:35;;;;;;;29.25;17.35;;;;;;;9.55;62.95;93788.75;5008253;28;20064;-75
2021/11/22 23:50:01;;;;;;;34.10;16.90;;;;;;;9.56;63.63;93795.66;5003380;28;20034;-75
2021/11/22 23:52:27;;;;;;;32.42;18.27;;;;;;;9.52;64.57;93792.03;5010452;28;20412;-75
2021/11/22 23:54:52;;;;;;;32.55;17.52;;;;;;;9.67;62.79;93796.94;5004234;28;20046;-75
2021/11/22 23:57:19;;;;;;;29.88;16.45;;;;;;;9.69;62.58;93795.53;5005253;28;20061;-75
2021/11/22 23:59:45;;;;;;;33.25;17.15;;;;;;;9.67;64.15;93807.56;4999745;28;20922;-75
